Time;durP1;ratioP1;P1;durP2;ratioP2;P2;SDS_P1;SDS_P2;PMS_P1;PMS_P2;Temp;Humidity;BMP_temperature;BMP_pressure;BME280_temperature;BME280_humidity;BME280_pressure;Samples;Min_cycle;Max_cycle;Signal;HPM_P1;HPM_P2
2022/04/27 00:01:09;;;;;;;18.92;15.70;;;8.00;99.90;;;;;;4225521;27;20135;-73
2022/04/27 00:03:11;;;;;;;12.20;10.07;;;8.00;99.90;;;;;;4226672;28;20056;-72
2022/04/27 00:05:13;;;;;;;10.27;9.20;;;7.90;99.90;;;;;;4227066;27;20888;-72
2022/04/27 00:07:15;;;;;;;11.45;10.25;;;7.80;99.90;;;;;;4225621;28;20138;-74
2022/04/27 00:09:17;;;;;;;10.43;9.35;;;7.80;99.90;;;;;;4225114;28;20057;-73
2022/04/27 00:11:18;;;;;;;11.82;9.82;;;7.80;99.90;;;;;;4223441;28;20184;-73
2022/04/27 00:13:20;;;;;;;9.73;8.30;;;7.70;99.90;;;;;;4225930;28;20685;-73
2022/04/27 00:15:27;;;;;;;11.52;9.85;;;7.80;99.90;;;;;;4224264;28;20067;-73
2022/04/27 00:17:28;;;;;;;10.35;9.23;;;7.80;99.90;;;;;;4227013;28;20088;-73
2022/04/27 00:19:30;;;;;;;12.05;9.77;;;7.90;99.90;;;;;;4223927;28;20155;-73
2022/04/27 00:21:32;;;;;;;10.82;9.68;;;7.90;99.90;;;;;;4227891;27;20071;-73
2022/04/27 00:23:34;;;;;;;10.18;9.05;;;7.90;99.90;;;;;;4223973;28;20960;-73
2022/04/27 00:25:36;;;;;;;10.43;9.20;;;7.90;99.90;;;;;;4226430;28;20175;-73
2022/04/27 00:27:39;;;;;;;10.75;9.35;;;7.90;99.90;;;;;;4228901;28;20056;-73
2022/04/27 00:29:40;;;;;;;10.65;9.45;;;7.90;99.90;;;;;;4219316;28;20135;-73
2022/04/27 00:31:42;;;;;;;11.07;9.88;;;7.90;99.90;;;;;;4230274;28;20055;-73
2022/04/27 00:33:45;;;;;;;14.93;10.88;;;7.90;99.90;;;;;;4221510;28;20056;-73
2022/04/27 00:35:47;;;;;;;13.57;9.60;;;7.90;99.90;;;;;;4219388;28;20100;-73
2022/04/27 00:37:49;;;;;;;13.43;10.27;;;7.90;99.90;;;;;;4219526;28;20063;-73
2022/04/27 00:39:50;;;;;;;15.02;11.27;;;7.90;99.90;;;;;;4217667;28;20863;-73
2022/04/27 00:42:02;;;;;;;11.55;10.27;;;7.90;99.90;;;;;;4222749;28;20847;-73
2022/04/27 00:44:04;;;;;;;12.98;10.98;;;7.90;99.90;;;;;;4222703;28;20130;-73
2022/04/27 00:46:06;;;;;;;12.18;10.45;;;7.90;99.90;;;;;;4220372;28;20178;-73
2022/04/27 00:48:09;;;;;;;14.25;10.93;;;7.80;99.90;;;;;;4225293;27;20137;-73
2022/04/27 00:50:11;;;;;;;14.85;12.13;;;7.80;99.90;;;;;;4217923;28;20205;-73
2022/04/27 00:52:15;;;;;;;13.00;11.35;;;7.80;99.90;;;;;;4217966;28;20179;-72
2022/04/27 00:54:22;;;;;;;14.93;12.10;;;7.80;99.90;;;;;;4220988;28;20063;-73
2022/04/27 00:56:24;;;;;;;16.15;12.48;;;7.80;99.90;;;;;;4221022;28;20113;-73
2022/04/27 00:58:27;;;;;;;14.05;11.95;;;7.80;99.90;;;;;;4219024;28;20056;-73
2022/04/27 01:00:48;;;;;;;15.20;11.70;;;7.80;99.90;;;;;;4221732;28;20748;-73
2022/04/27 01:02:50;;;;;;;15.55;12.45;;;7.80;99.90;;;;;;4224741;28;20180;-73
2022/04/27 01:04:53;;;;;;;14.07;11.88;;;7.80;99.90;;;;;;4222814;28;20901;-73
2022/04/27 01:06:55;;;;;;;14.50;12.68;;;7.80;99.90;;;;;;4220477;28;20521;-73
2022/04/27 01:08:56;;;;;;;14.55;11.27;;;7.80;99.90;;;;;;4222695;28;20066;-73
2022/04/27 01:10:59;;;;;;;15.55;12.48;;;7.80;99.90;;;;;;4226231;28;20179;-73
2022/04/27 01:13:01;;;;;;;16.73;12.98;;;7.90;99.90;;;;;;4221992;28;20844;-73
2022/04/27 01:15:04;;;;;;;15.05;11.65;;;7.90;99.90;;;;;;4222562;28;20163;-73
2022/04/27 01:17:06;;;;;;;17.33;13.27;;;7.90;99.90;;;;;;4225027;28;20060;-73
2022/04/27 01:19:08;;;;;;;16.92;13.35;;;7.90;99.90;;;;;;4226557;28;20145;-73
2022/04/27 01:21:11;;;;;;;16.23;12.73;;;7.90;99.90;;;;;;4225323;28;20087;-73
2022/04/27 01:23:14;;;;;;;18.73;13.20;;;8.00;99.90;;;;;;4225654;28;20882;-72
2022/04/27 01:25:16;;;;;;;18.83;14.57;;;8.00;99.90;;;;;;4226781;28;20151;-74
2022/04/27 01:27:18;;;;;;;18.25;14.85;;;8.00;99.90;;;;;;4223347;28;20621;-73
2022/04/27 01:29:25;;;;;;;18.67;13.88;;;8.00;99.90;;;;;;4224452;27;20056;-73
2022/04/27 01:31:27;;;;;;;18.17;13.63;;;8.00;99.90;;;;;;4228598;28;20198;-73
2022/04/27 01:33:35;;;;;;;19.48;14.68;;;8.00;99.90;;;;;;4225135;28;20163;-73
2022/04/27 01:35:37;;;;;;;15.18;12.40;;;8.10;99.90;;;;;;4229740;28;20629;-73
2022/04/27 01:39:59;;;;;;;20.33;14.65;;;8.10;99.90;;;;;;4223074;28;20187;-73
2022/04/27 01:42:01;;;;;;;19.55;14.93;;;8.00;99.90;;;;;;4221099;28;20060;-73
2022/04/27 01:44:03;;;;;;;16.85;13.63;;;8.10;99.90;;;;;;4222267;28;20151;-73
2022/04/27 01:46:06;;;;;;;17.52;13.38;;;8.10;99.90;;;;;;4218829;28;21186;-73
2022/04/27 01:48:09;;;;;;;17.42;13.73;;;8.10;99.90;;;;;;4220432;28;20653;-73
2022/04/27 01:50:11;;;;;;;18.23;13.60;;;8.20;99.90;;;;;;4217729;28;20175;-73
2022/04/27 01:54:32;;;;;;;19.67;14.18;;;8.20;99.90;;;;;;4219235;28;20053;-73
2022/04/27 01:56:35;;;;;;;19.17;14.05;;;8.20;99.90;;;;;;4228977;28;20079;-73
2022/04/27 01:58:36;;;;;;;19.98;14.55;;;8.20;99.90;;;;;;4225357;28;20159;-73
2022/04/27 02:00:38;;;;;;;19.05;15.25;;;8.20;99.90;;;;;;4217278;28;20056;-73
2022/04/27 02:02:40;;;;;;;22.27;15.60;;;8.20;99.90;;;;;;4219371;28;20106;-73
2022/04/27 02:04:43;;;;;;;18.65;15.18;;;8.10;99.90;;;;;;4230456;28;20091;-73
2022/04/27 02:06:44;;;;;;;22.48;16.45;;;8.00;99.90;;;;;;4221648;28;20175;-73
2022/04/27 02:08:46;;;;;;;19.88;16.83;;;8.00;99.90;;;;;;4216014;28;20859;-73
2022/04/27 02:10:48;;;;;;;21.85;16.10;;;8.00;99.90;;;;;;4219067;28;20852;-73
2022/04/27 02:12:50;;;;;;;24.38;17.80;;;8.00;99.90;;;;;;4218902;28;21211;-73
2022/04/27 02:14:52;;;;;;;21.75;15.48;;;8.00;99.90;;;;;;4220106;28;20158;-73
2022/04/27 02:16:53;;;;;;;24.92;16.13;;;8.00;99.90;;;;;;4222477;28;20848;-73
2022/04/27 02:18:56;;;;;;;27.42;17.27;;;8.10;99.90;;;;;;4229416;28;20056;-73
2022/04/27 02:20:57;;;;;;;24.17;16.77;;;8.10;99.90;;;;;;4224194;28;20178;-73
2022/04/27 02:22:59;;;;;;;29.10;18.70;;;8.10;99.90;;;;;;4221026;28;20745;-73
2022/04/27 02:25:02;;;;;;;24.73;17.55;;;8.10;99.90;;;;;;4219711;28;20052;-73
2022/04/27 02:27:04;;;;;;;25.63;18.75;;;8.00;99.90;;;;;;4224316;28;20056;-73
2022/04/27 02:29:05;;;;;;;27.20;19.42;;;8.00;99.90;;;;;;4222935;28;20067;-73
2022/04/27 02:31:08;;;;;;;26.98;19.23;;;7.90;99.90;;;;;;4225780;28;20133;-73
2022/04/27 02:33:09;;;;;;;28.73;19.33;;;7.80;99.90;;;;;;4222146;28;20055;-73
2022/04/27 02:35:13;;;;;;;27.48;19.38;;;7.70;99.90;;;;;;4217072;28;20182;-73
2022/04/27 02:37:14;;;;;;;30.02;19.85;;;7.70;99.90;;;;;;4222430;28;20053;-73
2022/04/27 02:39:16;;;;;;;27.95;19.67;;;7.70;99.90;;;;;;4222761;28;20052;-73
2022/04/27 02:41:18;;;;;;;31.05;20.58;;;7.60;99.90;;;;;;4221404;28;20737;-73
2022/04/27 02:43:21;;;;;;;32.35;20.27;;;7.60;99.90;;;;;;4222989;28;20908;-73
2022/04/27 02:45:23;;;;;;;27.42;18.80;;;7.70;99.90;;;;;;4221023;28;20794;-73
2022/04/27 02:47:25;;;;;;;25.58;18.58;;;7.70;99.90;;;;;;4221422;28;20059;-73
2022/04/27 02:51:51;;;;;;;26.70;19.17;;;7.80;99.90;;;;;;4225965;28;20082;-73
2022/04/27 02:53:53;;;;;;;27.30;18.13;;;7.80;99.90;;;;;;4222368;27;20045;-73
2022/04/27 02:55:55;;;;;;;28.55;18.25;;;7.80;99.90;;;;;;4221277;28;20168;-73
2022/04/27 02:57:56;;;;;;;26.85;18.15;;;7.90;99.90;;;;;;4218355;28;20755;-73
2022/04/27 02:59:58;;;;;;;27.13;18.83;;;7.90;99.90;;;;;;4219571;28;20060;-73
2022/04/27 03:02:00;;;;;;;27.58;18.90;;;7.90;99.90;;;;;;4218493;28;20903;-73
2022/04/27 03:04:02;;;;;;;25.67;16.23;;;7.90;99.90;;;;;;4216330;28;20101;-73
2022/04/27 03:06:04;;;;;;;25.70;18.08;;;7.80;99.90;;;;;;4219028;28;20056;-73
2022/04/27 03:08:06;;;;;;;24.80;18.08;;;7.80;99.90;;;;;;4217845;28;20060;-73
2022/04/27 03:10:08;;;;;;;25.27;17.40;;;7.80;99.90;;;;;;4217492;28;20080;-73
2022/04/27 03:12:10;;;;;;;26.02;17.92;;;7.90;99.90;;;;;;4218589;28;20056;-73
2022/04/27 03:14:11;;;;;;;24.27;17.50;;;7.90;99.90;;;;;;4222062;28;20062;-73
2022/04/27 03:16:13;;;;;;;25.33;18.00;;;8.00;99.90;;;;;;4220036;28;20060;-73
2022/04/27 03:18:19;;;;;;;24.13;16.15;;;7.90;99.90;;;;;;4214829;28;20066;-73
2022/04/27 03:20:21;;;;;;;25.10;17.77;;;7.90;99.90;;;;;;4222050;27;20359;-73
2022/04/27 03:22:23;;;;;;;26.73;18.85;;;7.90;99.90;;;;;;4220486;28;20118;-73
2022/04/27 03:24:25;;;;;;;27.55;18.05;;;8.00;99.90;;;;;;4229186;28;20147;-73
2022/04/27 03:26:27;;;;;;;26.60;17.60;;;8.00;99.90;;;;;;4222102;28;20890;-72
2022/04/27 03:28:28;;;;;;;25.67;17.55;;;7.90;99.90;;;;;;4220816;28;20873;-73
2022/04/27 03:30:30;;;;;;;25.75;17.83;;;7.90;99.90;;;;;;4222468;28;20194;-74
2022/04/27 03:32:32;;;;;;;26.48;17.42;;;8.00;99.90;;;;;;4221797;27;20075;-73
2022/04/27 03:34:33;;;;;;;23.38;16.52;;;7.90;99.90;;;;;;4218683;28;20095;-73
2022/04/27 03:36:35;;;;;;;21.85;15.40;;;7.80;99.90;;;;;;4225440;28;20186;-72
2022/04/27 03:38:38;;;;;;;28.05;17.23;;;7.80;99.90;;;;;;4226423;28;20091;-73
2022/04/27 03:40:41;;;;;;;22.52;16.17;;;7.70;99.90;;;;;;4225115;28;20060;-73
2022/04/27 03:42:43;;;;;;;25.00;18.17;;;7.70;99.90;;;;;;4226927;28;20063;-73
2022/04/27 03:44:45;;;;;;;24.17;17.17;;;7.70;99.90;;;;;;4223626;28;20159;-74
2022/04/27 03:46:47;;;;;;;30.80;17.50;;;7.70;99.90;;;;;;4217341;28;20063;-73
2022/04/27 03:48:52;;;;;;;22.10;16.00;;;7.80;99.90;;;;;;4211877;22;20815;-73
2022/04/27 03:50:53;;;;;;;22.15;15.20;;;7.90;99.90;;;;;;4196449;28;20080;-73
2022/04/27 03:52:55;;;;;;;23.48;15.32;;;7.90;99.90;;;;;;4176642;28;20053;-73
2022/04/27 03:55:01;;;;;;;26.02;15.27;;;7.80;99.90;;;;;;4197305;28;20756;-73
2022/04/27 03:57:09;;;;;;;26.25;16.73;;;7.70;99.90;;;;;;4194798;28;20599;-74
2022/04/27 03:59:11;;;;;;;22.63;15.48;;;7.70;99.90;;;;;;4195877;28;20227;-73
2022/04/27 04:01:12;;;;;;;26.25;17.60;;;7.70;99.90;;;;;;4195930;28;20152;-74
2022/04/27 04:03:14;;;;;;;27.50;15.82;;;7.60;99.90;;;;;;4196411;28;22058;-74
2022/04/27 04:05:23;;;;;;;25.45;16.58;;;7.60;99.90;;;;;;4195833;28;20060;-76
2022/04/27 04:07:25;;;;;;;25.00;16.30;;;7.60;99.90;;;;;;4195335;28;20084;-73
2022/04/27 04:09:27;;;;;;;24.67;16.55;;;7.60;99.90;;;;;;4196459;28;21191;-74
2022/04/27 04:11:28;;;;;;;23.83;16.55;;;7.70;99.90;;;;;;4194895;28;20053;-73
2022/04/27 04:13:30;;;;;;;23.17;16.92;;;7.70;99.90;;;;;;4191409;28;20163;-74
2022/04/27 04:15:32;;;;;;;22.88;15.63;;;7.80;99.90;;;;;;4184382;28;20061;-73
2022/04/27 04:17:34;;;;;;;21.58;16.00;;;7.80;99.90;;;;;;4191115;28;20188;-73
2022/04/27 04:19:35;;;;;;;21.95;15.65;;;7.80;99.90;;;;;;4191716;28;20148;-73
2022/04/27 04:21:38;;;;;;;25.17;16.58;;;7.80;99.90;;;;;;4193154;28;20097;-74
2022/04/27 04:23:45;;;;;;;25.30;15.32;;;7.80;99.90;;;;;;4190787;28;20163;-73
2022/04/27 04:30:28;;;;;;;23.00;15.10;;;7.80;99.90;;;;;;4192413;28;20057;-73
2022/04/27 04:32:37;;;;;;;24.70;16.75;;;7.80;99.90;;;;;;4191452;28;20979;-73
2022/04/27 04:34:38;;;;;;;26.42;16.55;;;7.90;99.90;;;;;;4190567;28;20155;-73
2022/04/27 04:36:40;;;;;;;24.40;16.20;;;7.90;99.90;;;;;;4191858;28;20061;-73
2022/04/27 04:38:42;;;;;;;24.05;15.38;;;8.00;99.90;;;;;;4191210;28;20765;-73
2022/04/27 04:40:43;;;;;;;22.08;15.27;;;8.00;99.90;;;;;;4195652;28;20064;-73
2022/04/27 04:42:45;;;;;;;22.20;15.05;;;8.00;99.90;;;;;;4191562;28;20099;-73
2022/04/27 04:44:47;;;;;;;22.27;14.57;;;8.00;99.90;;;;;;4194653;28;20092;-73
2022/04/27 04:46:49;;;;;;;23.10;15.52;;;8.00;99.90;;;;;;4189697;28;20057;-73
2022/04/27 04:48:50;;;;;;;23.85;15.40;;;8.00;99.90;;;;;;4191060;28;20053;-73
2022/04/27 04:50:52;;;;;;;19.75;13.65;;;8.00;99.90;;;;;;4185390;28;20167;-73
2022/04/27 04:52:54;;;;;;;21.60;14.50;;;8.00;99.90;;;;;;4187981;28;20061;-73
2022/04/27 04:54:55;;;;;;;25.95;15.25;;;8.00;99.90;;;;;;4189883;28;21074;-73
2022/04/27 04:56:57;;;;;;;23.35;15.73;;;8.10;99.90;;;;;;4186621;28;20103;-73
2022/04/27 04:58:59;;;;;;;22.10;14.75;;;8.10;99.90;;;;;;4188441;28;20096;-73
2022/04/27 05:01:02;;;;;;;22.13;15.15;;;8.20;99.90;;;;;;4193134;28;20072;-73
2022/04/27 05:03:04;;;;;;;20.88;14.75;;;8.20;99.90;;;;;;4178766;28;20099;-74
2022/04/27 05:05:07;;;;;;;22.02;14.45;;;8.20;99.90;;;;;;4189298;28;20623;-73
2022/04/27 05:07:09;;;;;;;21.17;13.95;;;8.20;99.90;;;;;;4188876;28;20296;-73
2022/04/27 05:09:12;;;;;;;18.92;13.23;;;8.10;99.90;;;;;;4191323;28;20080;-73
2022/04/27 05:11:14;;;;;;;21.90;14.63;;;8.10;99.90;;;;;;4195475;28;20156;-73
2022/04/27 05:13:15;;;;;;;21.25;15.25;;;8.10;99.90;;;;;;4188257;28;20136;-73
2022/04/27 05:15:17;;;;;;;17.50;13.55;;;8.10;99.90;;;;;;4189930;28;20583;-73
2022/04/27 05:17:19;;;;;;;21.92;13.77;;;8.10;99.90;;;;;;4187788;28;20122;-73
2022/04/27 05:19:22;;;;;;;18.30;14.00;;;8.20;99.90;;;;;;4187855;28;20888;-73
2022/04/27 05:21:24;;;;;;;21.92;15.45;;;8.20;99.90;;;;;;4191979;28;20102;-73
2022/04/27 05:23:27;;;;;;;20.60;14.63;;;8.30;99.90;;;;;;4187859;28;20176;-73
2022/04/27 05:25:29;;;;;;;22.30;14.57;;;8.30;99.90;;;;;;4188324;28;20061;-73
2022/04/27 05:27:31;;;;;;;27.65;14.30;;;8.30;99.90;;;;;;4184130;28;20058;-73
2022/04/27 05:31:57;;;;;;;22.63;15.55;;;8.30;99.90;;;;;;4192716;28;20105;-73
2022/04/27 05:33:59;;;;;;;19.58;14.63;;;8.20;99.90;;;;;;4190823;28;20053;-74
2022/04/27 05:36:02;;;;;;;20.95;15.18;;;8.30;99.90;;;;;;4193227;28;20875;-74
2022/04/27 05:38:05;;;;;;;20.08;14.90;;;8.30;99.90;;;;;;4192629;28;20056;-73
2022/04/27 05:40:08;;;;;;;24.20;16.13;;;8.30;99.90;;;;;;4192071;28;20061;-72
2022/04/27 05:42:09;;;;;;;20.70;14.65;;;8.30;99.90;;;;;;4189713;28;20834;-72
2022/04/27 05:44:12;;;;;;;25.00;15.32;;;8.30;99.90;;;;;;4185841;28;20053;-72
2022/04/27 05:46:15;;;;;;;18.35;13.57;;;8.30;99.90;;;;;;4191142;28;20192;-72
2022/04/27 05:48:17;;;;;;;22.48;14.85;;;8.30;99.90;;;;;;4190995;28;20068;-72
2022/04/27 05:50:18;;;;;;;21.77;15.07;;;8.40;99.90;;;;;;4195798;28;20145;-72
2022/04/27 05:52:20;;;;;;;24.02;17.05;;;8.40;99.90;;;;;;4194437;28;20092;-72
2022/04/27 05:54:22;;;;;;;20.30;14.23;;;8.40;99.90;;;;;;4186014;28;20517;-72
2022/04/27 05:56:24;;;;;;;20.30;14.48;;;8.40;99.90;;;;;;4184282;28;20775;-73
2022/04/27 05:58:26;;;;;;;19.33;14.55;;;8.40;99.90;;;;;;4184230;28;20095;-74
2022/04/27 06:00:28;;;;;;;20.98;13.65;;;8.40;99.90;;;;;;4189892;28;20083;-72
2022/04/27 06:02:29;;;;;;;23.80;14.93;;;8.50;99.90;;;;;;4189244;28;20156;-72
2022/04/27 06:04:31;;;;;;;18.75;13.48;;;8.50;99.90;;;;;;4192951;28;20060;-72
2022/04/27 06:06:34;;;;;;;27.55;20.42;;;8.70;99.90;;;;;;4192372;28;21082;-73
2022/04/27 06:08:35;;;;;;;26.90;19.02;;;8.80;99.90;;;;;;4193706;28;20115;-72
2022/04/27 06:10:37;;;;;;;24.92;17.77;;;8.80;99.90;;;;;;4195300;28;20099;-72
2022/04/27 06:12:47;;;;;;;20.20;15.57;;;8.80;99.90;;;;;;4191256;28;20111;-72
2022/04/27 06:14:48;;;;;;;20.55;16.10;;;8.90;99.90;;;;;;4191088;28;20130;-72
2022/04/27 06:16:50;;;;;;;21.83;14.05;;;9.00;99.90;;;;;;4185630;28;20057;-72
2022/04/27 06:18:52;;;;;;;17.95;12.88;;;9.00;99.90;;;;;;4185794;28;20168;-72
2022/04/27 06:20:54;;;;;;;16.70;11.88;;;9.00;99.90;;;;;;4192643;28;20093;-72
2022/04/27 06:22:57;;;;;;;18.25;11.90;;;9.00;99.90;;;;;;4187423;28;20053;-72
2022/04/27 06:24:58;;;;;;;17.88;12.88;;;8.90;99.90;;;;;;4187354;28;20204;-72
2022/04/27 06:27:00;;;;;;;20.73;13.18;;;8.90;99.90;;;;;;4188026;28;20559;-72
2022/04/27 06:29:03;;;;;;;20.23;13.90;;;9.00;99.90;;;;;;4190072;28;20053;-73
2022/04/27 06:31:04;;;;;;;18.75;13.95;;;9.00;99.90;;;;;;4187659;28;20057;-73
2022/04/27 06:33:06;;;;;;;20.17;14.05;;;9.00;99.90;;;;;;4189540;28;20056;-72
2022/04/27 06:35:12;;;;;;;21.15;14.68;;;8.90;99.90;;;;;;4189756;28;20049;-72
2022/04/27 06:37:14;;;;;;;21.27;14.98;;;8.80;99.90;;;;;;4188235;28;20096;-72
2022/04/27 06:39:18;;;;;;;21.17;15.48;;;8.70;99.90;;;;;;4184199;28;20060;-72
2022/04/27 06:41:19;;;;;;;23.42;15.93;;;8.80;99.90;;;;;;4185306;28;20061;-72
2022/04/27 06:43:21;;;;;;;30.65;20.13;;;8.80;99.90;;;;;;4184006;28;20058;-72
2022/04/27 06:45:27;;;;;;;32.35;21.65;;;8.80;99.90;;;;;;4187101;28;20092;-72
2022/04/27 06:47:29;;;;;;;22.17;16.95;;;8.80;99.90;;;;;;4183855;28;20151;-73
2022/04/27 06:49:31;;;;;;;21.80;15.98;;;8.80;99.90;;;;;;4184146;28;20060;-73
2022/04/27 06:51:33;;;;;;;22.33;16.23;;;8.80;99.90;;;;;;4192368;28;20118;-72
2022/04/27 06:53:36;;;;;;;24.83;16.42;;;8.90;99.90;;;;;;4185056;28;20057;-72
2022/04/27 06:55:38;;;;;;;22.13;16.10;;;8.80;99.90;;;;;;4189574;28;20061;-72
2022/04/27 06:57:40;;;;;;;22.20;16.20;;;8.80;99.90;;;;;;4184813;28;20057;-72
2022/04/27 06:59:41;;;;;;;23.65;16.13;;;8.70;99.90;;;;;;4186045;28;20164;-73
2022/04/27 07:01:43;;;;;;;24.80;16.98;;;8.70;99.90;;;;;;4189007;28;20888;-72
2022/04/27 07:03:45;;;;;;;24.05;16.75;;;8.60;99.90;;;;;;4188943;28;20878;-72
2022/04/27 07:05:47;;;;;;;24.17;16.70;;;8.70;99.90;;;;;;4185265;28;20608;-72
2022/04/27 07:07:49;;;;;;;23.25;16.40;;;8.70;99.90;;;;;;4185377;28;20890;-72
2022/04/27 07:09:51;;;;;;;25.48;17.02;;;8.70;99.90;;;;;;4183716;28;20807;-72
2022/04/27 07:11:53;;;;;;;22.20;15.90;;;8.70;99.90;;;;;;4188633;28;20057;-72
2022/04/27 07:13:55;;;;;;;25.25;17.10;;;8.70;99.90;;;;;;4189768;28;20057;-72
2022/04/27 07:16:00;;;;;;;21.60;16.35;;;8.90;99.90;;;;;;4188960;28;20053;-72
2022/04/27 07:18:02;;;;;;;27.38;18.08;;;9.10;99.90;;;;;;4192872;28;20053;-72
2022/04/27 07:20:05;;;;;;;22.05;15.75;;;9.30;99.90;;;;;;4194407;28;20061;-72
2022/04/27 07:22:07;;;;;;;21.30;15.80;;;9.40;99.90;;;;;;4188754;28;20057;-72
2022/04/27 07:24:09;;;;;;;21.35;15.90;;;9.40;99.90;;;;;;4186611;28;20183;-72
2022/04/27 07:26:11;;;;;;;26.00;15.85;;;9.30;99.90;;;;;;4187975;28;20856;-72
2022/04/27 07:28:13;;;;;;;20.13;14.75;;;9.30;99.90;;;;;;4189165;28;20057;-72
2022/04/27 07:30:15;;;;;;;24.65;16.40;;;9.30;99.90;;;;;;4190778;28;20107;-72
2022/04/27 07:32:17;;;;;;;20.02;14.73;;;9.20;99.90;;;;;;4188553;28;20844;-72
2022/04/27 07:34:18;;;;;;;23.92;15.73;;;9.30;99.90;;;;;;4191254;28;20135;-72
2022/04/27 07:36:20;;;;;;;17.67;14.40;;;9.30;99.90;;;;;;4189058;28;20163;-72
2022/04/27 07:38:22;;;;;;;21.55;15.30;;;9.20;99.90;;;;;;4186473;28;20057;-73
2022/04/27 07:40:24;;;;;;;16.92;13.52;;;9.20;99.90;;;;;;4192419;28;20080;-72
2022/04/27 07:42:25;;;;;;;16.15;13.32;;;9.30;99.90;;;;;;4190345;28;20175;-72
2022/04/27 07:44:27;;;;;;;17.98;13.57;;;9.30;99.90;;;;;;4189559;28;20060;-73
2022/04/27 07:46:29;;;;;;;19.05;14.65;;;9.30;99.90;;;;;;4188920;28;20100;-72
2022/04/27 07:48:32;;;;;;;15.25;12.60;;;9.20;99.90;;;;;;4189154;28;20902;-72
2022/04/27 07:50:34;;;;;;;18.05;13.40;;;9.10;99.90;;;;;;4187945;28;20088;-72
2022/04/27 07:52:36;;;;;;;19.10;13.15;;;9.10;99.90;;;;;;4194485;28;20061;-71
2022/04/27 07:54:40;;;;;;;15.60;13.27;;;9.20;99.90;;;;;;4189359;28;20063;-72
2022/04/27 07:56:42;;;;;;;15.15;12.43;;;9.30;99.90;;;;;;4191648;28;20061;-73
2022/04/27 07:58:44;;;;;;;13.02;11.32;;;9.40;99.90;;;;;;4186132;28;20053;-73
2022/04/27 08:00:46;;;;;;;18.38;13.60;;;9.40;99.90;;;;;;4188663;28;20773;-73
2022/04/27 08:02:48;;;;;;;17.13;13.23;;;9.40;99.90;;;;;;4189166;28;20180;-73
2022/04/27 08:04:50;;;;;;;15.77;12.20;;;9.60;99.90;;;;;;4186499;28;20063;-73
2022/04/27 08:06:52;;;;;;;15.73;11.63;;;9.60;99.90;;;;;;4185711;28;20058;-72
2022/04/27 08:08:53;;;;;;;14.27;11.68;;;9.60;99.90;;;;;;4184694;28;20947;-73
2022/04/27 08:10:56;;;;;;;16.58;14.02;;;9.70;99.90;;;;;;4191801;28;20053;-73
2022/04/27 08:12:58;;;;;;;15.73;12.00;;;9.90;99.90;;;;;;4189239;28;20091;-73
2022/04/27 08:15:00;;;;;;;14.60;11.50;;;10.00;99.90;;;;;;4183130;28;20880;-73
2022/04/27 08:17:03;;;;;;;11.57;10.38;;;10.10;99.90;;;;;;4184506;28;20742;-73
2022/04/27 08:19:05;;;;;;;16.20;12.73;;;10.00;99.90;;;;;;4184673;28;20064;-73
2022/04/27 08:21:15;;;;;;;14.80;11.07;;;9.90;99.90;;;;;;4185459;28;20048;-73
2022/04/27 08:23:20;;;;;;;13.80;11.52;;;9.90;99.90;;;;;;4181904;28;20224;-73
2022/04/27 08:25:22;;;;;;;12.45;11.13;;;9.90;99.90;;;;;;4188043;28;20089;-73
2022/04/27 08:27:23;;;;;;;14.45;11.45;;;9.90;99.90;;;;;;4192410;28;20199;-73
2022/04/27 08:29:25;;;;;;;14.40;11.85;;;9.80;99.90;;;;;;4190808;28;20103;-73
2022/04/27 08:31:27;;;;;;;13.23;11.27;;;9.70;99.90;;;;;;4185792;28;20077;-73
2022/04/27 08:33:29;;;;;;;14.05;11.15;;;9.70;99.90;;;;;;4186235;28;20100;-74
2022/04/27 08:35:32;;;;;;;15.57;10.93;;;9.80;99.90;;;;;;4189185;28;20069;-74
2022/04/27 08:37:34;;;;;;;12.95;10.43;;;9.90;99.90;;;;;;4186440;28;20131;-74
2022/04/27 08:39:41;;;;;;;17.30;11.65;;;9.80;99.90;;;;;;4186813;28;20057;-74
2022/04/27 08:41:42;;;;;;;15.07;10.95;;;9.90;99.90;;;;;;4187096;28;20057;-74
2022/04/27 08:43:44;;;;;;;13.20;11.13;;;10.00;99.90;;;;;;4186415;28;20184;-73
2022/04/27 08:45:46;;;;;;;13.93;10.98;;;10.00;99.90;;;;;;4188938;28;20123;-74
2022/04/27 08:47:50;;;;;;;14.65;10.57;;;10.00;99.90;;;;;;4192838;28;20067;-74
2022/04/27 08:49:52;;;;;;;15.93;11.60;;;10.10;99.90;;;;;;4187139;28;20167;-74
2022/04/27 08:51:56;;;;;;;12.93;10.32;;;10.10;99.90;;;;;;4188588;28;20056;-74
2022/04/27 08:53:59;;;;;;;12.00;10.02;;;10.20;99.90;;;;;;4192049;28;20100;-74
2022/04/27 08:56:01;;;;;;;14.70;10.82;;;10.50;99.90;;;;;;4189467;28;20058;-74
2022/04/27 08:58:10;;;;;;;14.95;9.57;;;10.60;99.90;;;;;;4191181;28;20192;-74
2022/04/27 09:00:32;;;;;;;9.45;8.48;;;10.90;99.90;;;;;;4190743;28;20081;-75
2022/04/27 09:02:35;;;;;;;10.43;8.63;;;10.90;99.90;;;;;;4189949;28;21538;-75
2022/04/27 09:04:37;;;;;;;11.25;8.82;;;11.00;99.70;;;;;;4188684;28;20148;-75
2022/04/27 09:06:39;;;;;;;10.25;8.93;;;11.00;99.90;;;;;;4189850;28;20159;-74
2022/04/27 09:08:46;;;;;;;11.18;9.23;;;10.90;99.90;;;;;;4192838;28;20057;-75
2022/04/27 09:10:48;;;;;;;11.77;9.35;;;11.10;99.90;;;;;;4188607;28;20084;-75
2022/04/27 09:12:57;;;;;;;9.95;8.48;;;11.30;99.40;;;;;;4190188;28;20184;-75
2022/04/27 09:15:07;;;;;;;12.55;10.10;;;11.50;97.70;;;;;;4184546;28;20100;-75
2022/04/27 09:22:04;;;;;;;10.48;9.02;;;12.00;96.20;;;;;;4185230;28;21361;-75
2022/04/27 09:24:06;;;;;;;10.95;7.68;;;12.10;95.60;;;;;;4189507;28;20658;-76
2022/04/27 09:26:19;;;;;;;8.68;7.80;;;12.20;94.90;;;;;;4191834;28;20806;-76
2022/04/27 09:28:23;;;;;;;11.00;9.60;;;12.00;94.90;;;;;;4187642;28;20057;-75
2022/04/27 09:30:27;;;;;;;12.30;8.95;;;12.10;96.50;;;;;;4185305;28;20057;-74
2022/04/27 09:32:29;;;;;;;13.20;10.57;;;12.30;95.40;;;;;;4185032;28;20061;-76
2022/04/27 09:34:46;;;;;;;9.88;8.48;;;12.30;95.30;;;;;;4191876;28;20056;-75
2022/04/27 09:36:53;;;;;;;10.40;9.30;;;12.30;94.20;;;;;;4191971;28;20560;-75
2022/04/27 09:38:57;;;;;;;13.32;10.02;;;12.40;94.50;;;;;;4181487;28;20816;-75
2022/04/27 09:40:59;;;;;;;13.15;10.70;;;12.10;94.80;;;;;;4182946;28;20105;-76
2022/04/27 09:43:01;;;;;;;11.75;10.52;;;12.10;95.80;;;;;;4181857;28;20718;-75
2022/04/27 09:45:16;;;;;;;13.68;10.32;;;12.20;94.60;;;;;;4185267;28;20057;-76
2022/04/27 09:47:21;;;;;;;10.70;9.57;;;12.30;94.40;;;;;;4191823;28;20084;-77
2022/04/27 09:49:23;;;;;;;12.90;9.38;;;12.30;94.30;;;;;;4221741;22;20238;-74
2022/04/27 09:51:32;;;;;;;13.10;9.15;;;12.30;93.50;;;;;;4211314;28;20599;-75
2022/04/27 09:53:37;;;;;;;10.05;8.23;;;12.40;93.50;;;;;;4212940;28;20064;-75
2022/04/27 09:55:48;;;;;;;9.35;8.30;;;12.40;92.80;;;;;;4217262;28;20044;-77
2022/04/27 09:57:54;;;;;;;;;;;12.30;92.50;;;;;;4209676;28;20060;-74
2022/04/27 09:59:56;;;;;;;9.70;8.48;;;12.40;92.30;;;;;;4191099;28;20063;-74
2022/04/27 10:02:09;;;;;;;9.23;7.35;;;12.40;92.80;;;;;;4193288;28;20953;-74
2022/04/27 10:04:13;;;;;;;7.45;6.63;;;12.40;91.40;;;;;;4185962;28;20060;-74
2022/04/27 10:06:16;;;;;;;6.85;6.25;;;12.50;92.60;;;;;;4192542;28;20092;-73
2022/04/27 10:08:19;;;;;;;9.45;7.32;;;12.80;90.80;;;;;;4187716;28;20192;-74
2022/04/27 10:10:22;;;;;;;8.10;7.30;;;13.00;89.90;;;;;;4189264;28;20119;-74
2022/04/27 10:12:23;;;;;;;9.00;7.82;;;13.10;91.10;;;;;;4186466;28;20093;-74
2022/04/27 10:14:26;;;;;;;9.40;7.95;;;13.30;91.00;;;;;;4185119;28;20099;-74
2022/04/27 10:16:29;;;;;;;13.30;8.57;;;13.20;90.60;;;;;;4188386;28;20060;-74
2022/04/27 10:18:36;;;;;;;8.32;7.50;;;13.10;90.80;;;;;;4186503;28;20099;-74
2022/04/27 10:20:38;;;;;;;7.82;7.05;;;13.10;90.20;;;;;;4192677;28;20141;-73
2022/04/27 10:22:40;;;;;;;6.80;6.18;;;13.00;90.50;;;;;;4185576;28;20054;-74
2022/04/27 10:24:49;;;;;;;8.75;7.57;;;13.10;90.40;;;;;;4191783;28;20904;-73
2022/04/27 10:26:51;;;;;;;8.07;7.20;;;13.10;88.60;;;;;;4185235;28;20899;-73
2022/04/27 10:29:00;;;;;;;7.15;6.55;;;13.00;89.10;;;;;;4188379;28;20103;-74
2022/04/27 10:31:04;;;;;;;6.70;5.88;;;12.90;89.70;;;;;;4183481;28;20049;-73
2022/04/27 10:33:05;;;;;;;8.38;6.57;;;13.00;90.70;;;;;;4190988;28;21349;-73
2022/04/27 10:35:19;;;;;;;5.97;5.47;;;13.10;89.60;;;;;;4184788;28;20076;-73
2022/04/27 10:37:45;;;;;;;5.38;4.88;;;13.10;88.40;;;;;;4188569;28;20299;-73
2022/04/27 10:39:50;;;;;;;6.75;5.30;;;13.30;88.60;;;;;;4189633;28;20753;-74
2022/04/27 10:42:04;;;;;;;7.20;6.00;;;13.40;87.30;;;;;;4188861;28;20064;-74
2022/04/27 10:44:06;;;;;;;7.05;5.55;;;13.50;87.60;;;;;;4189871;28;20056;-73
2022/04/27 10:46:34;;;;;;;5.88;5.30;;;13.40;88.10;;;;;;4192364;28;20064;-74
2022/04/27 10:48:48;;;;;;;4.70;4.30;;;13.20;87.90;;;;;;4189340;28;20060;-75
2022/04/27 10:51:02;;;;;;;5.63;5.13;;;12.90;88.00;;;;;;4188319;28;20068;-74
2022/04/27 10:53:18;;;;;;;5.63;5.05;;;12.80;86.70;;;;;;4189832;28;20150;-74